sensor_id;sensor_type;location;lat;lon;timestamp;P1;durP1;ratioP1;P2;durP2;ratioP2
13014;SDS011;6573;57.696;11.950;2022-12-18T00:01:22;62.67;;;29.47;;
13014;SDS011;6573;57.696;11.950;2022-12-18T00:03:54;56.67;;;28.40;;
13014;SDS011;6573;57.696;11.950;2022-12-18T00:06:23;61.13;;;28.70;;
13014;SDS011;6573;57.696;11.950;2022-12-18T00:08:54;63.07;;;28.43;;
13014;SDS011;6573;57.696;11.950;2022-12-18T00:11:26;60.40;;;29.73;;
13014;SDS011;6573;57.696;11.950;2022-12-18T00:13:58;62.37;;;27.80;;
13014;SDS011;6573;57.696;11.950;2022-12-18T00:16:28;56.40;;;28.50;;
13014;SDS011;6573;57.696;11.950;2022-12-18T00:19:00;63.10;;;32.17;;
13014;SDS011;6573;57.696;11.950;2022-12-18T00:21:29;60.33;;;30.03;;
13014;SDS011;6573;57.696;11.950;2022-12-18T00:23:59;59.43;;;29.43;;
13014;SDS011;6573;57.696;11.950;2022-12-18T00:26:31;63.53;;;29.90;;
13014;SDS011;6573;57.696;11.950;2022-12-18T00:29:04;57.73;;;29.73;;
13014;SDS011;6573;57.696;11.950;2022-12-18T00:34:29;56.93;;;29.67;;
13014;SDS011;6573;57.696;11.950;2022-12-18T00:37:11;55.30;;;28.00;;
13014;SDS011;6573;57.696;11.950;2022-12-18T00:39:45;52.50;;;26.93;;
13014;SDS011;6573;57.696;11.950;2022-12-18T00:42:22;56.40;;;30.13;;
13014;SDS011;6573;57.696;11.950;2022-12-18T00:45:11;53.03;;;28.97;;
13014;SDS011;6573;57.696;11.950;2022-12-18T00:47:40;60.47;;;30.03;;
13014;SDS011;6573;57.696;11.950;2022-12-18T00:50:09;57.97;;;29.07;;
13014;SDS011;6573;57.696;11.950;2022-12-18T00:52:39;55.10;;;29.63;;
13014;SDS011;6573;57.696;11.950;2022-12-18T00:55:08;59.47;;;32.27;;
13014;SDS011;6573;57.696;11.950;2022-12-18T00:57:38;65.33;;;30.40;;
13014;SDS011;6573;57.696;11.950;2022-12-18T01:00:08;57.33;;;29.70;;
13014;SDS011;6573;57.696;11.950;2022-12-18T01:02:41;61.47;;;29.27;;
13014;SDS011;6573;57.696;11.950;2022-12-18T01:05:14;56.40;;;31.77;;
13014;SDS011;6573;57.696;11.950;2022-12-18T01:07:46;57.63;;;31.30;;
13014;SDS011;6573;57.696;11.950;2022-12-18T01:10:15;59.23;;;31.77;;
13014;SDS011;6573;57.696;11.950;2022-12-18T01:12:44;60.23;;;30.70;;
13014;SDS011;6573;57.696;11.950;2022-12-18T01:17:46;51.70;;;28.10;;
13014;SDS011;6573;57.696;11.950;2022-12-18T01:20:15;54.53;;;28.43;;
13014;SDS011;6573;57.696;11.950;2022-12-18T01:22:44;60.07;;;30.77;;
13014;SDS011;6573;57.696;11.950;2022-12-18T01:25:13;55.97;;;28.63;;
13014;SDS011;6573;57.696;11.950;2022-12-18T01:27:44;51.83;;;26.57;;
13014;SDS011;6573;57.696;11.950;2022-12-18T01:30:13;56.57;;;28.93;;
13014;SDS011;6573;57.696;11.950;2022-12-18T01:32:44;49.03;;;27.73;;
13014;SDS011;6573;57.696;11.950;2022-12-18T01:35:13;51.70;;;27.13;;
13014;SDS011;6573;57.696;11.950;2022-12-18T01:37:42;49.73;;;25.70;;
13014;SDS011;6573;57.696;11.950;2022-12-18T01:40:13;50.10;;;28.63;;
13014;SDS011;6573;57.696;11.950;2022-12-18T01:42:43;53.23;;;27.43;;
13014;SDS011;6573;57.696;11.950;2022-12-18T01:45:24;54.27;;;28.07;;
13014;SDS011;6573;57.696;11.950;2022-12-18T01:47:59;55.00;;;27.20;;
13014;SDS011;6573;57.696;11.950;2022-12-18T01:50:31;52.47;;;28.07;;
13014;SDS011;6573;57.696;11.950;2022-12-18T01:53:05;57.07;;;27.37;;
13014;SDS011;6573;57.696;11.950;2022-12-18T01:55:38;51.63;;;26.53;;
13014;SDS011;6573;57.696;11.950;2022-12-18T01:58:12;50.93;;;26.23;;
13014;SDS011;6573;57.696;11.950;2022-12-18T02:00:44;57.33;;;29.50;;
13014;SDS011;6573;57.696;11.950;2022-12-18T02:03:15;48.50;;;24.20;;
13014;SDS011;6573;57.696;11.950;2022-12-18T02:05:45;47.70;;;25.27;;
13014;SDS011;6573;57.696;11.950;2022-12-18T02:08:21;42.73;;;23.20;;
13014;SDS011;6573;57.696;11.950;2022-12-18T02:10:59;42.33;;;22.23;;
13014;SDS011;6573;57.696;11.950;2022-12-18T02:13:36;46.20;;;25.37;;
13014;SDS011;6573;57.696;11.950;2022-12-18T02:16:12;54.00;;;25.60;;
13014;SDS011;6573;57.696;11.950;2022-12-18T02:21:48;57.70;;;25.53;;
13014;SDS011;6573;57.696;11.950;2022-12-18T02:24:26;61.63;;;27.03;;
13014;SDS011;6573;57.696;11.950;2022-12-18T02:27:03;54.77;;;25.77;;
13014;SDS011;6573;57.696;11.950;2022-12-18T02:29:36;55.97;;;23.53;;
13014;SDS011;6573;57.696;11.950;2022-12-18T02:32:09;47.77;;;22.57;;
13014;SDS011;6573;57.696;11.950;2022-12-18T02:34:43;42.20;;;19.63;;
13014;SDS011;6573;57.696;11.950;2022-12-18T02:37:15;43.27;;;20.00;;
13014;SDS011;6573;57.696;11.950;2022-12-18T02:39:47;41.53;;;20.27;;
13014;SDS011;6573;57.696;11.950;2022-12-18T02:42:19;47.57;;;19.13;;
13014;SDS011;6573;57.696;11.950;2022-12-18T02:44:50;55.23;;;20.33;;
13014;SDS011;6573;57.696;11.950;2022-12-18T02:47:20;46.97;;;19.73;;
13014;SDS011;6573;57.696;11.950;2022-12-18T02:49:53;46.97;;;19.10;;
13014;SDS011;6573;57.696;11.950;2022-12-18T02:52:31;46.90;;;18.67;;
13014;SDS011;6573;57.696;11.950;2022-12-18T02:55:10;43.97;;;18.97;;
13014;SDS011;6573;57.696;11.950;2022-12-18T02:57:49;42.23;;;19.07;;
13014;SDS011;6573;57.696;11.950;2022-12-18T03:00:24;41.63;;;18.37;;
13014;SDS011;6573;57.696;11.950;2022-12-18T03:03:02;45.40;;;17.13;;
13014;SDS011;6573;57.696;11.950;2022-12-18T03:05:36;34.97;;;16.53;;
13014;SDS011;6573;57.696;11.950;2022-12-18T03:08:12;36.53;;;17.57;;
13014;SDS011;6573;57.696;11.950;2022-12-18T03:10:45;35.67;;;16.93;;
13014;SDS011;6573;57.696;11.950;2022-12-18T03:13:20;37.57;;;18.77;;
13014;SDS011;6573;57.696;11.950;2022-12-18T03:15:55;40.43;;;21.07;;
13014;SDS011;6573;57.696;11.950;2022-12-18T03:18:29;45.10;;;18.87;;
13014;SDS011;6573;57.696;11.950;2022-12-18T03:21:02;37.60;;;18.50;;
13014;SDS011;6573;57.696;11.950;2022-12-18T03:23:35;35.60;;;17.30;;
13014;SDS011;6573;57.696;11.950;2022-12-18T03:26:10;46.53;;;19.70;;
13014;SDS011;6573;57.696;11.950;2022-12-18T03:28:47;40.33;;;18.97;;
13014;SDS011;6573;57.696;11.950;2022-12-18T03:31:19;40.97;;;19.00;;
13014;SDS011;6573;57.696;11.950;2022-12-18T03:33:52;39.47;;;17.90;;
13014;SDS011;6573;57.696;11.950;2022-12-18T03:36:21;39.70;;;18.73;;
13014;SDS011;6573;57.696;11.950;2022-12-18T03:38:52;41.73;;;19.07;;
13014;SDS011;6573;57.696;11.950;2022-12-18T03:41:37;40.03;;;18.30;;
13014;SDS011;6573;57.696;11.950;2022-12-18T03:48:01;38.60;;;17.90;;
13014;SDS011;6573;57.696;11.950;2022-12-18T03:50:38;38.93;;;18.40;;
13014;SDS011;6573;57.696;11.950;2022-12-18T03:53:23;45.30;;;18.03;;
13014;SDS011;6573;57.696;11.950;2022-12-18T03:55:58;41.43;;;19.10;;
13014;SDS011;6573;57.696;11.950;2022-12-18T03:58:50;43.13;;;19.10;;
13014;SDS011;6573;57.696;11.950;2022-12-18T04:01:37;39.87;;;18.70;;
13014;SDS011;6573;57.696;11.950;2022-12-18T04:07:00;50.27;;;20.20;;
13014;SDS011;6573;57.696;11.950;2022-12-18T04:09:32;48.07;;;20.73;;
13014;SDS011;6573;57.696;11.950;2022-12-18T04:12:07;42.47;;;20.97;;
13014;SDS011;6573;57.696;11.950;2022-12-18T04:14:36;43.83;;;20.23;;
13014;SDS011;6573;57.696;11.950;2022-12-18T04:17:05;41.77;;;18.23;;
13014;SDS011;6573;57.696;11.950;2022-12-18T04:19:38;45.53;;;17.90;;
13014;SDS011;6573;57.696;11.950;2022-12-18T04:22:11;41.00;;;18.67;;
13014;SDS011;6573;57.696;11.950;2022-12-18T04:24:54;41.47;;;18.47;;
13014;SDS011;6573;57.696;11.950;2022-12-18T04:27:26;37.20;;;17.10;;
13014;SDS011;6573;57.696;11.950;2022-12-18T04:29:56;37.00;;;16.47;;
13014;SDS011;6573;57.696;11.950;2022-12-18T04:32:26;34.53;;;16.03;;
13014;SDS011;6573;57.696;11.950;2022-12-18T04:34:59;35.70;;;16.93;;
13014;SDS011;6573;57.696;11.950;2022-12-18T04:37:35;44.97;;;17.63;;
13014;SDS011;6573;57.696;11.950;2022-12-18T04:40:06;37.80;;;16.50;;
13014;SDS011;6573;57.696;11.950;2022-12-18T04:42:36;35.47;;;16.87;;
13014;SDS011;6573;57.696;11.950;2022-12-18T04:45:06;36.37;;;15.73;;
13014;SDS011;6573;57.696;11.950;2022-12-18T04:47:35;32.13;;;15.03;;
13014;SDS011;6573;57.696;11.950;2022-12-18T04:50:07;31.40;;;14.47;;
13014;SDS011;6573;57.696;11.950;2022-12-18T04:52:38;33.80;;;15.23;;
13014;SDS011;6573;57.696;11.950;2022-12-18T04:55:08;27.07;;;13.10;;
13014;SDS011;6573;57.696;11.950;2022-12-18T04:57:39;28.60;;;13.33;;
13014;SDS011;6573;57.696;11.950;2022-12-18T05:00:09;26.40;;;13.37;;
13014;SDS011;6573;57.696;11.950;2022-12-18T05:02:43;29.93;;;11.73;;
13014;SDS011;6573;57.696;11.950;2022-12-18T05:05:14;22.17;;;10.70;;
13014;SDS011;6573;57.696;11.950;2022-12-18T05:07:43;27.30;;;12.23;;
13014;SDS011;6573;57.696;11.950;2022-12-18T05:10:13;27.03;;;11.77;;
13014;SDS011;6573;57.696;11.950;2022-12-18T05:12:42;21.43;;;9.53;;
13014;SDS011;6573;57.696;11.950;2022-12-18T05:15:28;22.73;;;10.03;;
13014;SDS011;6573;57.696;11.950;2022-12-18T05:17:57;22.37;;;10.40;;
13014;SDS011;6573;57.696;11.950;2022-12-18T05:20:29;22.80;;;10.83;;
13014;SDS011;6573;57.696;11.950;2022-12-18T05:22:58;22.80;;;10.40;;
13014;SDS011;6573;57.696;11.950;2022-12-18T05:25:28;21.37;;;9.77;;
13014;SDS011;6573;57.696;11.950;2022-12-18T05:27:57;20.47;;;8.50;;
13014;SDS011;6573;57.696;11.950;2022-12-18T05:30:25;21.40;;;8.20;;
13014;SDS011;6573;57.696;11.950;2022-12-18T05:32:54;20.90;;;8.73;;
13014;SDS011;6573;57.696;11.950;2022-12-18T05:35:25;21.13;;;8.17;;
13014;SDS011;6573;57.696;11.950;2022-12-18T05:37:56;17.73;;;7.83;;
13014;SDS011;6573;57.696;11.950;2022-12-18T05:40:27;20.77;;;8.10;;
13014;SDS011;6573;57.696;11.950;2022-12-18T05:42:57;19.60;;;7.47;;
13014;SDS011;6573;57.696;11.950;2022-12-18T05:45:36;19.10;;;7.87;;
13014;SDS011;6573;57.696;11.950;2022-12-18T05:48:05;16.07;;;7.70;;
13014;SDS011;6573;57.696;11.950;2022-12-18T05:50:42;17.13;;;7.40;;
13014;SDS011;6573;57.696;11.950;2022-12-18T05:53:17;21.97;;;7.20;;
13014;SDS011;6573;57.696;11.950;2022-12-18T05:55:48;15.27;;;7.80;;
13014;SDS011;6573;57.696;11.950;2022-12-18T05:58:17;18.60;;;7.60;;
13014;SDS011;6573;57.696;11.950;2022-12-18T06:00:46;15.67;;;7.47;;
13014;SDS011;6573;57.696;11.950;2022-12-18T06:03:16;16.90;;;7.50;;
13014;SDS011;6573;57.696;11.950;2022-12-18T06:05:45;17.20;;;7.23;;
13014;SDS011;6573;57.696;11.950;2022-12-18T06:08:15;14.93;;;7.50;;
13014;SDS011;6573;57.696;11.950;2022-12-18T06:10:49;15.00;;;7.13;;
13014;SDS011;6573;57.696;11.950;2022-12-18T06:13:19;18.47;;;7.90;;
13014;SDS011;6573;57.696;11.950;2022-12-18T06:15:49;19.93;;;7.10;;
13014;SDS011;6573;57.696;11.950;2022-12-18T06:18:19;14.83;;;6.73;;
13014;SDS011;6573;57.696;11.950;2022-12-18T06:20:54;17.73;;;7.07;;
13014;SDS011;6573;57.696;11.950;2022-12-18T06:23:26;15.67;;;6.77;;
13014;SDS011;6573;57.696;11.950;2022-12-18T06:25:55;16.27;;;6.53;;
13014;SDS011;6573;57.696;11.950;2022-12-18T06:28:24;15.30;;;6.50;;
13014;SDS011;6573;57.696;11.950;2022-12-18T06:30:52;15.27;;;6.60;;
13014;SDS011;6573;57.696;11.950;2022-12-18T06:33:21;14.63;;;6.33;;
13014;SDS011;6573;57.696;11.950;2022-12-18T06:35:49;15.37;;;6.77;;
13014;SDS011;6573;57.696;11.950;2022-12-18T06:38:32;16.27;;;6.40;;
13014;SDS011;6573;57.696;11.950;2022-12-18T06:41:11;18.57;;;7.60;;
13014;SDS011;6573;57.696;11.950;2022-12-18T06:43:43;21.27;;;7.17;;
13014;SDS011;6573;57.696;11.950;2022-12-18T06:46:11;20.10;;;6.47;;
13014;SDS011;6573;57.696;11.950;2022-12-18T06:48:42;15.97;;;6.30;;
13014;SDS011;6573;57.696;11.950;2022-12-18T06:51:15;14.93;;;6.77;;
13014;SDS011;6573;57.696;11.950;2022-12-18T06:53:48;15.77;;;6.10;;
13014;SDS011;6573;57.696;11.950;2022-12-18T06:56:18;14.50;;;6.33;;
13014;SDS011;6573;57.696;11.950;2022-12-18T06:58:48;16.90;;;6.47;;
13014;SDS011;6573;57.696;11.950;2022-12-18T07:01:17;13.50;;;6.20;;
13014;SDS011;6573;57.696;11.950;2022-12-18T07:03:50;18.83;;;6.57;;
13014;SDS011;6573;57.696;11.950;2022-12-18T07:06:21;20.37;;;6.30;;
13014;SDS011;6573;57.696;11.950;2022-12-18T07:08:53;13.47;;;6.03;;
13014;SDS011;6573;57.696;11.950;2022-12-18T07:11:22;13.00;;;5.50;;
13014;SDS011;6573;57.696;11.950;2022-12-18T07:13:51;17.30;;;6.40;;
13014;SDS011;6573;57.696;11.950;2022-12-18T07:16:22;15.43;;;6.00;;
13014;SDS011;6573;57.696;11.950;2022-12-18T07:18:51;13.67;;;5.53;;
13014;SDS011;6573;57.696;11.950;2022-12-18T07:21:21;16.07;;;6.30;;
13014;SDS011;6573;57.696;11.950;2022-12-18T07:23:53;14.93;;;5.70;;
13014;SDS011;6573;57.696;11.950;2022-12-18T07:26:22;14.53;;;5.20;;
13014;SDS011;6573;57.696;11.950;2022-12-18T07:28:56;15.43;;;5.77;;
13014;SDS011;6573;57.696;11.950;2022-12-18T07:31:25;14.43;;;5.00;;
13014;SDS011;6573;57.696;11.950;2022-12-18T07:33:54;17.03;;;4.70;;
13014;SDS011;6573;57.696;11.950;2022-12-18T07:36:23;13.87;;;5.17;;
13014;SDS011;6573;57.696;11.950;2022-12-18T07:39:00;13.03;;;4.60;;
13014;SDS011;6573;57.696;11.950;2022-12-18T07:41:32;13.43;;;4.70;;
13014;SDS011;6573;57.696;11.950;2022-12-18T07:44:00;16.03;;;4.87;;
13014;SDS011;6573;57.696;11.950;2022-12-18T07:46:29;18.87;;;5.10;;
13014;SDS011;6573;57.696;11.950;2022-12-18T07:49:00;14.13;;;5.97;;
13014;SDS011;6573;57.696;11.950;2022-12-18T07:51:30;16.00;;;4.87;;
13014;SDS011;6573;57.696;11.950;2022-12-18T07:54:01;12.07;;;4.57;;
13014;SDS011;6573;57.696;11.950;2022-12-18T07:56:34;20.27;;;5.13;;
13014;SDS011;6573;57.696;11.950;2022-12-18T07:59:04;12.43;;;4.80;;
13014;SDS011;6573;57.696;11.950;2022-12-18T08:01:35;14.87;;;5.00;;
13014;SDS011;6573;57.696;11.950;2022-12-18T08:04:04;16.97;;;5.30;;
13014;SDS011;6573;57.696;11.950;2022-12-18T08:06:34;15.63;;;4.97;;
13014;SDS011;6573;57.696;11.950;2022-12-18T08:09:14;17.83;;;5.77;;
13014;SDS011;6573;57.696;11.950;2022-12-18T08:11:44;21.37;;;5.63;;
13014;SDS011;6573;57.696;11.950;2022-12-18T08:14:13;17.37;;;5.20;;
13014;SDS011;6573;57.696;11.950;2022-12-18T08:16:43;14.83;;;4.87;;
13014;SDS011;6573;57.696;11.950;2022-12-18T08:19:12;16.90;;;5.70;;
13014;SDS011;6573;57.696;11.950;2022-12-18T08:21:41;15.20;;;5.33;;
13014;SDS011;6573;57.696;11.950;2022-12-18T08:24:14;13.40;;;4.90;;
13014;SDS011;6573;57.696;11.950;2022-12-18T08:26:43;16.10;;;5.50;;
13014;SDS011;6573;57.696;11.950;2022-12-18T08:29:37;16.50;;;4.90;;
13014;SDS011;6573;57.696;11.950;2022-12-18T08:32:22;14.13;;;4.57;;
13014;SDS011;6573;57.696;11.950;2022-12-18T08:34:52;15.70;;;5.53;;
13014;SDS011;6573;57.696;11.950;2022-12-18T08:37:36;19.63;;;5.43;;
13014;SDS011;6573;57.696;11.950;2022-12-18T08:40:10;15.57;;;5.07;;
13014;SDS011;6573;57.696;11.950;2022-12-18T08:42:55;17.53;;;5.60;;
13014;SDS011;6573;57.696;11.950;2022-12-18T08:45:43;13.83;;;5.30;;
13014;SDS011;6573;57.696;11.950;2022-12-18T08:51:07;15.83;;;6.77;;
13014;SDS011;6573;57.696;11.950;2022-12-18T08:53:37;15.13;;;5.47;;
13014;SDS011;6573;57.696;11.950;2022-12-18T08:56:12;13.47;;;6.00;;
13014;SDS011;6573;57.696;11.950;2022-12-18T08:58:43;16.83;;;6.23;;
13014;SDS011;6573;57.696;11.950;2022-12-18T09:01:15;21.07;;;6.60;;
13014;SDS011;6573;57.696;11.950;2022-12-18T09:03:59;20.40;;;6.30;;
13014;SDS011;6573;57.696;11.950;2022-12-18T09:06:29;20.87;;;6.70;;
13014;SDS011;6573;57.696;11.950;2022-12-18T09:09:02;19.33;;;6.60;;
13014;SDS011;6573;57.696;11.950;2022-12-18T09:11:38;20.80;;;7.00;;
13014;SDS011;6573;57.696;11.950;2022-12-18T09:14:08;22.73;;;7.57;;
13014;SDS011;6573;57.696;11.950;2022-12-18T09:16:38;15.07;;;7.10;;
13014;SDS011;6573;57.696;11.950;2022-12-18T09:19:11;23.07;;;7.77;;
13014;SDS011;6573;57.696;11.950;2022-12-18T09:21:42;18.87;;;7.40;;
13014;SDS011;6573;57.696;11.950;2022-12-18T09:24:14;19.10;;;7.20;;
13014;SDS011;6573;57.696;11.950;2022-12-18T09:26:48;18.83;;;7.83;;
13014;SDS011;6573;57.696;11.950;2022-12-18T09:29:23;20.87;;;7.13;;
13014;SDS011;6573;57.696;11.950;2022-12-18T09:32:06;19.97;;;7.43;;
13014;SDS011;6573;57.696;11.950;2022-12-18T09:34:53;17.50;;;7.10;;
13014;SDS011;6573;57.696;11.950;2022-12-18T09:37:24;21.80;;;8.67;;
13014;SDS011;6573;57.696;11.950;2022-12-18T09:40:01;24.77;;;7.20;;
13014;SDS011;6573;57.696;11.950;2022-12-18T09:45:52;21.17;;;7.20;;
13014;SDS011;6573;57.696;11.950;2022-12-18T09:48:44;15.73;;;6.40;;
13014;SDS011;6573;57.696;11.950;2022-12-18T09:51:22;20.93;;;7.47;;
13014;SDS011;6573;57.696;11.950;2022-12-18T09:54:14;22.40;;;6.97;;
13014;SDS011;6573;57.696;11.950;2022-12-18T09:57:18;20.33;;;6.93;;
13014;SDS011;6573;57.696;11.950;2022-12-18T10:00:11;16.27;;;6.10;;
13014;SDS011;6573;57.696;11.950;2022-12-18T10:02:47;16.33;;;6.13;;
13014;SDS011;6573;57.696;11.950;2022-12-18T10:05:24;16.70;;;6.03;;
13014;SDS011;6573;57.696;11.950;2022-12-18T10:08:33;20.30;;;6.63;;
13014;SDS011;6573;57.696;11.950;2022-12-18T10:11:26;18.70;;;6.20;;
13014;SDS011;6573;57.696;11.950;2022-12-18T10:14:09;17.27;;;6.13;;
13014;SDS011;6573;57.696;11.950;2022-12-18T10:16:56;13.80;;;5.53;;
13014;SDS011;6573;57.696;11.950;2022-12-18T10:19:35;16.70;;;5.47;;
13014;SDS011;6573;57.696;11.950;2022-12-18T10:22:19;16.67;;;5.73;;
13014;SDS011;6573;57.696;11.950;2022-12-18T10:25:02;16.10;;;5.13;;
13014;SDS011;6573;57.696;11.950;2022-12-18T10:28:09;15.97;;;5.40;;
13014;SDS011;6573;57.696;11.950;2022-12-18T10:30:54;16.83;;;5.30;;
13014;SDS011;6573;57.696;11.950;2022-12-18T10:36:46;16.70;;;5.00;;
13014;SDS011;6573;57.696;11.950;2022-12-18T10:39:20;16.27;;;5.40;;
13014;SDS011;6573;57.696;11.950;2022-12-18T10:42:05;12.03;;;4.53;;
13014;SDS011;6573;57.696;11.950;2022-12-18T10:45:12;12.30;;;4.47;;
13014;SDS011;6573;57.696;11.950;2022-12-18T10:48:28;16.53;;;4.63;;
13014;SDS011;6573;57.696;11.950;2022-12-18T10:54:54;12.93;;;4.30;;
13014;SDS011;6573;57.696;11.950;2022-12-18T10:58:13;8.80;;;4.27;;
13014;SDS011;6573;57.696;11.950;2022-12-18T11:01:06;14.00;;;4.70;;
13014;SDS011;6573;57.696;11.950;2022-12-18T11:04:24;15.33;;;4.63;;
13014;SDS011;6573;57.696;11.950;2022-12-18T11:13:58;18.80;;;4.77;;
13014;SDS011;6573;57.696;11.950;2022-12-18T11:16:29;13.30;;;4.53;;
13014;SDS011;6573;57.696;11.950;2022-12-18T11:19:13;13.57;;;4.87;;
13014;SDS011;6573;57.696;11.950;2022-12-18T11:21:48;16.40;;;5.10;;
13014;SDS011;6573;57.696;11.950;2022-12-18T11:24:19;14.07;;;4.43;;
13014;SDS011;6573;57.696;11.950;2022-12-18T11:26:51;13.33;;;5.07;;
13014;SDS011;6573;57.696;11.950;2022-12-18T11:29:30;16.93;;;5.53;;
13014;SDS011;6573;57.696;11.950;2022-12-18T11:34:52;13.60;;;5.27;;
13014;SDS011;6573;57.696;11.950;2022-12-18T11:37:26;21.43;;;6.00;;
13014;SDS011;6573;57.696;11.950;2022-12-18T11:39:56;16.40;;;5.50;;
13014;SDS011;6573;57.696;11.950;2022-12-18T11:42:32;14.23;;;5.20;;
13014;SDS011;6573;57.696;11.950;2022-12-18T11:45:20;18.03;;;4.57;;
13014;SDS011;6573;57.696;11.950;2022-12-18T11:47:56;16.40;;;5.13;;
13014;SDS011;6573;57.696;11.950;2022-12-18T11:50:31;13.40;;;4.73;;
13014;SDS011;6573;57.696;11.950;2022-12-18T11:53:10;18.20;;;5.27;;
13014;SDS011;6573;57.696;11.950;2022-12-18T11:55:41;17.17;;;5.27;;
13014;SDS011;6573;57.696;11.950;2022-12-18T11:58:29;22.90;;;4.97;;
13014;SDS011;6573;57.696;11.950;2022-12-18T12:01:13;15.57;;;4.57;;
13014;SDS011;6573;57.696;11.950;2022-12-18T12:03:59;16.80;;;4.60;;
13014;SDS011;6573;57.696;11.950;2022-12-18T12:06:37;14.07;;;4.53;;
13014;SDS011;6573;57.696;11.950;2022-12-18T12:09:14;15.87;;;5.00;;
13014;SDS011;6573;57.696;11.950;2022-12-18T12:11:52;13.97;;;5.03;;
13014;SDS011;6573;57.696;11.950;2022-12-18T12:14:39;15.50;;;5.20;;
13014;SDS011;6573;57.696;11.950;2022-12-18T12:17:18;17.30;;;5.20;;
13014;SDS011;6573;57.696;11.950;2022-12-18T12:19:59;18.27;;;5.50;;
13014;SDS011;6573;57.696;11.950;2022-12-18T12:22:37;27.13;;;5.77;;
13014;SDS011;6573;57.696;11.950;2022-12-18T12:25:17;14.77;;;4.97;;
13014;SDS011;6573;57.696;11.950;2022-12-18T12:27:58;14.67;;;5.40;;
13014;SDS011;6573;57.696;11.950;2022-12-18T12:30:44;17.53;;;5.20;;
13014;SDS011;6573;57.696;11.950;2022-12-18T12:33:27;18.47;;;5.60;;
13014;SDS011;6573;57.696;11.950;2022-12-18T12:36:07;16.57;;;5.10;;
13014;SDS011;6573;57.696;11.950;2022-12-18T12:38:43;17.40;;;5.37;;
13014;SDS011;6573;57.696;11.950;2022-12-18T12:41:18;15.00;;;4.83;;
13014;SDS011;6573;57.696;11.950;2022-12-18T12:44:06;14.40;;;5.00;;
13014;SDS011;6573;57.696;11.950;2022-12-18T12:46:37;14.10;;;4.40;;
13014;SDS011;6573;57.696;11.950;2022-12-18T12:49:11;12.60;;;4.77;;
13014;SDS011;6573;57.696;11.950;2022-12-18T12:51:43;17.60;;;4.70;;
13014;SDS011;6573;57.696;11.950;2022-12-18T12:54:15;16.77;;;4.90;;
13014;SDS011;6573;57.696;11.950;2022-12-18T12:56:48;14.50;;;4.23;;
13014;SDS011;6573;57.696;11.950;2022-12-18T12:59:25;13.00;;;4.10;;
13014;SDS011;6573;57.696;11.950;2022-12-18T13:02:05;9.87;;;3.77;;
13014;SDS011;6573;57.696;11.950;2022-12-18T13:04:45;9.80;;;3.73;;
13014;SDS011;6573;57.696;11.950;2022-12-18T13:07:20;16.30;;;4.00;;
13014;SDS011;6573;57.696;11.950;2022-12-18T13:10:12;12.13;;;3.90;;
13014;SDS011;6573;57.696;11.950;2022-12-18T13:12:54;13.00;;;4.00;;
13014;SDS011;6573;57.696;11.950;2022-12-18T13:15:24;12.73;;;3.90;;
13014;SDS011;6573;57.696;11.950;2022-12-18T13:18:11;13.37;;;3.53;;
13014;SDS011;6573;57.696;11.950;2022-12-18T13:20:44;11.27;;;3.80;;
13014;SDS011;6573;57.696;11.950;2022-12-18T13:23:31;12.50;;;3.50;;
13014;SDS011;6573;57.696;11.950;2022-12-18T13:28:59;9.30;;;3.63;;
13014;SDS011;6573;57.696;11.950;2022-12-18T13:34:31;14.87;;;4.30;;
13014;SDS011;6573;57.696;11.950;2022-12-18T13:43:27;11.93;;;4.03;;
13014;SDS011;6573;57.696;11.950;2022-12-18T13:46:16;10.73;;;3.47;;
13014;SDS011;6573;57.696;11.950;2022-12-18T13:48:54;13.63;;;3.60;;
13014;SDS011;6573;57.696;11.950;2022-12-18T13:51:25;12.60;;;3.97;;
13014;SDS011;6573;57.696;11.950;2022-12-18T13:53:56;15.27;;;4.00;;
13014;SDS011;6573;57.696;11.950;2022-12-18T13:56:28;14.53;;;3.97;;
13014;SDS011;6573;57.696;11.950;2022-12-18T13:59:15;11.23;;;3.83;;
13014;SDS011;6573;57.696;11.950;2022-12-18T14:01:51;14.73;;;4.00;;
13014;SDS011;6573;57.696;11.950;2022-12-18T14:04:23;15.23;;;3.40;;
13014;SDS011;6573;57.696;11.950;2022-12-18T14:06:57;16.30;;;3.73;;
13014;SDS011;6573;57.696;11.950;2022-12-18T14:09:34;13.13;;;3.83;;
13014;SDS011;6573;57.696;11.950;2022-12-18T14:12:06;16.57;;;3.87;;
13014;SDS011;6573;57.696;11.950;2022-12-18T14:14:59;13.20;;;4.20;;
13014;SDS011;6573;57.696;11.950;2022-12-18T14:17:28;11.90;;;3.70;;
13014;SDS011;6573;57.696;11.950;2022-12-18T14:20:00;13.47;;;3.70;;
13014;SDS011;6573;57.696;11.950;2022-12-18T14:22:28;12.83;;;3.83;;
13014;SDS011;6573;57.696;11.950;2022-12-18T14:25:10;12.30;;;3.77;;
13014;SDS011;6573;57.696;11.950;2022-12-18T14:27:44;12.57;;;3.77;;
13014;SDS011;6573;57.696;11.950;2022-12-18T14:30:25;13.87;;;3.87;;
13014;SDS011;6573;57.696;11.950;2022-12-18T14:33:02;14.63;;;4.30;;
13014;SDS011;6573;57.696;11.950;2022-12-18T14:35:34;12.87;;;4.80;;
13014;SDS011;6573;57.696;11.950;2022-12-18T14:38:18;14.83;;;4.73;;
13014;SDS011;6573;57.696;11.950;2022-12-18T14:40:54;13.90;;;4.77;;
13014;SDS011;6573;57.696;11.950;2022-12-18T14:43:27;20.20;;;6.20;;
13014;SDS011;6573;57.696;11.950;2022-12-18T14:45:57;15.27;;;4.67;;
13014;SDS011;6573;57.696;11.950;2022-12-18T14:48:35;15.50;;;5.30;;
13014;SDS011;6573;57.696;11.950;2022-12-18T14:51:06;14.63;;;5.73;;
13014;SDS011;6573;57.696;11.950;2022-12-18T14:53:45;20.20;;;5.90;;
13014;SDS011;6573;57.696;11.950;2022-12-18T14:56:22;16.63;;;6.47;;
13014;SDS011;6573;57.696;11.950;2022-12-18T14:58:53;21.63;;;7.90;;
13014;SDS011;6573;57.696;11.950;2022-12-18T15:01:25;20.80;;;9.33;;
13014;SDS011;6573;57.696;11.950;2022-12-18T15:03:56;24.80;;;10.20;;
13014;SDS011;6573;57.696;11.950;2022-12-18T15:06:27;24.33;;;9.97;;
13014;SDS011;6573;57.696;11.950;2022-12-18T15:08:58;27.20;;;11.03;;
13014;SDS011;6573;57.696;11.950;2022-12-18T15:17:14;34.67;;;13.47;;
13014;SDS011;6573;57.696;11.950;2022-12-18T15:19:46;37.67;;;14.70;;
13014;SDS011;6573;57.696;11.950;2022-12-18T15:22:24;32.43;;;15.43;;
13014;SDS011;6573;57.696;11.950;2022-12-18T15:24:54;36.43;;;17.07;;
13014;SDS011;6573;57.696;11.950;2022-12-18T15:27:26;41.57;;;17.93;;
13014;SDS011;6573;57.696;11.950;2022-12-18T15:30:18;42.40;;;18.83;;
13014;SDS011;6573;57.696;11.950;2022-12-18T15:32:52;49.73;;;21.27;;
13014;SDS011;6573;57.696;11.950;2022-12-18T15:35:40;50.97;;;22.60;;
13014;SDS011;6573;57.696;11.950;2022-12-18T15:38:12;51.33;;;21.83;;
13014;SDS011;6573;57.696;11.950;2022-12-18T15:40:41;51.13;;;22.03;;
13014;SDS011;6573;57.696;11.950;2022-12-18T15:43:12;51.73;;;22.23;;
13014;SDS011;6573;57.696;11.950;2022-12-18T15:45:58;61.37;;;25.03;;
13014;SDS011;6573;57.696;11.950;2022-12-18T15:48:26;66.37;;;26.97;;
13014;SDS011;6573;57.696;11.950;2022-12-18T15:50:55;69.90;;;28.10;;
13014;SDS011;6573;57.696;11.950;2022-12-18T15:53:25;61.13;;;26.93;;
13014;SDS011;6573;57.696;11.950;2022-12-18T15:55:58;69.47;;;28.60;;
13014;SDS011;6573;57.696;11.950;2022-12-18T15:58:47;74.10;;;29.47;;
13014;SDS011;6573;57.696;11.950;2022-12-18T16:01:18;59.60;;;28.23;;
13014;SDS011;6573;57.696;11.950;2022-12-18T16:03:50;72.47;;;30.07;;
13014;SDS011;6573;57.696;11.950;2022-12-18T16:06:20;70.70;;;30.13;;
13014;SDS011;6573;57.696;11.950;2022-12-18T16:08:48;65.83;;;29.40;;
13014;SDS011;6573;57.696;11.950;2022-12-18T16:11:20;81.87;;;35.80;;